Time;durP1;ratioP1;P1;durP2;ratioP2;P2;SDS_P1;SDS_P2;PMS_P1;PMS_P2;Temp;Humidity;BMP_temperature;BMP_pressure;BME280_temperature;BME280_humidity;BME280_pressure;Samples;Min_cycle;Max_cycle;Signal;HPM_P1;HPM_P2
2021/09/21 00:01:54;;;;;;;9.20;5.50;;;12.90;99.90;;;;;;5093807;28;20036;-54
2021/09/21 00:04:26;;;;;;;5.80;4.75;;;12.90;99.90;;;;;;5094067;28;20368;-55
2021/09/21 00:06:55;;;;;;;6.35;4.50;;;12.80;99.90;;;;;;5093668;28;20381;-55
2021/09/21 00:09:21;;;;;;;6.75;5.28;;;12.90;99.90;;;;;;5093373;28;20031;-55
2021/09/21 00:11:47;;;;;;;7.72;5.30;;;12.80;99.90;;;;;;5093643;28;20451;-54
2021/09/21 00:14:12;;;;;;;5.35;4.85;;;12.80;99.90;;;;;;5093479;28;20115;-54
2021/09/21 00:16:38;;;;;;;5.40;4.90;;;12.90;99.90;;;;;;5093407;28;20119;-54
2021/09/21 00:19:03;;;;;;;6.40;4.85;;;12.80;99.90;;;;;;5093233;28;20043;-54
2021/09/21 00:21:29;;;;;;;5.82;5.28;;;12.80;99.90;;;;;;5093555;28;20040;-55
2021/09/21 00:23:55;;;;;;;7.10;5.28;;;12.80;99.90;;;;;;5093533;28;20097;-54
2021/09/21 00:26:21;;;;;;;5.63;5.03;;;12.80;99.90;;;;;;5092237;28;20044;-55
2021/09/21 00:28:47;;;;;;;5.90;5.13;;;12.80;99.90;;;;;;5093002;28;20390;-54
2021/09/21 00:31:14;;;;;;;7.32;4.72;;;12.90;99.90;;;;;;5092930;28;20048;-54
2021/09/21 00:34:05;;;;;;;5.45;4.95;;;12.80;99.90;;;;;;5092820;28;20044;-54
2021/09/21 00:36:31;;;;;;;11.30;5.15;;;12.80;99.90;;;;;;5092916;28;20040;-54
2021/09/21 00:38:56;;;;;;;5.82;4.68;;;12.80;99.90;;;;;;5092960;28;20046;-55
2021/09/21 00:41:22;;;;;;;5.63;4.63;;;12.80;99.90;;;;;;5093129;28;20432;-54
2021/09/21 00:43:47;;;;;;;6.10;4.90;;;12.80;99.90;;;;;;5092957;28;20482;-54
2021/09/21 00:46:13;;;;;;;5.70;4.45;;;12.80;99.90;;;;;;5091464;28;20047;-54
2021/09/21 00:48:39;;;;;;;5.40;4.63;;;12.80;99.90;;;;;;5093074;28;20397;-55
2021/09/21 00:51:04;;;;;;;5.63;4.60;;;12.80;99.90;;;;;;5092621;28;20036;-54
2021/09/21 00:53:30;;;;;;;6.10;5.05;;;12.70;99.90;;;;;;5092643;28;20043;-55
2021/09/21 00:55:56;;;;;;;6.15;4.95;;;12.70;99.90;;;;;;5092753;28;20035;-55
2021/09/21 00:58:22;;;;;;;7.63;4.80;;;12.70;99.90;;;;;;5092601;28;20051;-54
2021/09/21 01:00:47;;;;;;;5.88;4.65;;;12.70;99.90;;;;;;5092552;28;20036;-54
2021/09/21 01:03:15;;;;;;;6.50;5.20;;;12.70;99.90;;;;;;5092625;28;20036;-55
2021/09/21 01:05:41;;;;;;;4.75;4.30;;;12.70;99.90;;;;;;5092456;28;20059;-55
2021/09/21 01:08:06;;;;;;;6.05;4.75;;;12.60;99.90;;;;;;5092853;28;20126;-55
2021/09/21 01:10:32;;;;;;;7.10;5.20;;;12.70;99.90;;;;;;5092991;28;20391;-55
2021/09/21 01:12:58;;;;;;;5.03;4.40;;;12.70;99.90;;;;;;5092336;28;20495;-54
2021/09/21 01:15:25;;;;;;;6.35;4.95;;;12.70;99.90;;;;;;5092339;28;20047;-55
2021/09/21 01:17:51;;;;;;;5.82;4.60;;;12.70;99.90;;;;;;5092288;28;20114;-55
2021/09/21 01:20:18;;;;;;;8.85;4.78;;;12.70;99.90;;;;;;5092247;28;20401;-55
2021/09/21 01:22:44;;;;;;;6.22;5.03;;;12.70;99.90;;;;;;5092248;28;20490;-54
2021/09/21 01:25:11;;;;;;;6.00;4.50;;;12.70;99.90;;;;;;5090870;28;20054;-54
2021/09/21 01:27:37;;;;;;;6.18;5.07;;;12.70;99.90;;;;;;5092069;28;20058;-54
2021/09/21 01:30:06;;;;;;;5.82;4.90;;;12.70;99.90;;;;;;5092086;28;20056;-54
2021/09/21 01:32:32;;;;;;;8.05;5.45;;;12.70;99.90;;;;;;5092105;28;20375;-55
2021/09/21 01:35:00;;;;;;;7.88;5.10;;;12.60;99.90;;;;;;5091990;28;20043;-55
2021/09/21 01:37:27;;;;;;;5.70;4.50;;;12.70;99.90;;;;;;5092212;28;20036;-54
2021/09/21 01:39:53;;;;;;;7.25;5.22;;;12.70;99.90;;;;;;5092072;28;20115;-55
2021/09/21 01:42:19;;;;;;;8.18;5.38;;;12.70;99.90;;;;;;5092184;28;20440;-54
2021/09/21 01:44:45;;;;;;;6.03;5.03;;;12.60;99.90;;;;;;5091996;28;20115;-54
2021/09/21 01:47:10;;;;;;;6.50;5.15;;;12.60;99.90;;;;;;5091903;28;20032;-55
2021/09/21 02:00:04;;;;;;;7.55;5.20;;;12.60;99.90;;;;;;5069395;28;20072;-55
2021/09/21 02:02:30;;;;;;;6.97;4.47;;;12.60;99.90;;;;;;5069459;28;20052;-55
2021/09/21 02:04:56;;;;;;;6.28;4.70;;;12.60;99.90;;;;;;5069413;28;20114;-54
2021/09/21 02:07:21;;;;;;;5.10;4.30;;;12.60;99.90;;;;;;5069287;28;20037;-55
2021/09/21 02:09:47;;;;;;;8.25;4.45;;;12.60;99.90;;;;;;5069500;28;20083;-55
2021/09/21 02:12:13;;;;;;;5.88;4.45;;;12.60;99.90;;;;;;5069180;28;20091;-54
2021/09/21 02:14:38;;;;;;;4.93;4.43;;;12.60;99.90;;;;;;5069092;28;20080;-55
2021/09/21 02:17:04;;;;;;;5.90;5.20;;;12.60;99.90;;;;;;5069554;28;20186;-54
2021/09/21 02:19:30;;;;;;;5.00;4.45;;;12.50;99.90;;;;;;5053089;28;20457;-55
2021/09/21 02:21:55;;;;;;;5.82;4.15;;;12.50;99.90;;;;;;5069092;28;20044;-54
2021/09/21 02:24:22;;;;;;;5.25;4.72;;;12.50;99.90;;;;;;5069216;28;20094;-55
2021/09/21 02:26:48;;;;;;;4.68;4.18;;;12.50;99.90;;;;;;5068978;28;20044;-54
2021/09/21 02:29:14;;;;;;;8.55;4.70;;;12.40;99.90;;;;;;5069135;28;20044;-54
2021/09/21 02:31:40;;;;;;;5.40;4.50;;;12.40;99.90;;;;;;5069071;28;20142;-55
2021/09/21 02:34:06;;;;;;;6.65;4.55;;;12.40;99.90;;;;;;5077493;28;20139;-54
2021/09/21 02:36:32;;;;;;;6.00;4.43;;;12.40;99.90;;;;;;5091399;28;20101;-54
2021/09/21 02:38:58;;;;;;;4.97;4.38;;;12.40;99.90;;;;;;5091306;28;20040;-55
2021/09/21 02:41:24;;;;;;;5.47;4.20;;;12.40;99.90;;;;;;5091404;28;20058;-54
2021/09/21 02:43:50;;;;;;;8.68;4.32;;;12.40;99.90;;;;;;5091585;28;20079;-55
2021/09/21 02:46:16;;;;;;;4.65;3.80;;;12.40;99.90;;;;;;5091597;28;20064;-55
2021/09/21 02:48:41;;;;;;;4.85;4.40;;;12.40;99.90;;;;;;5091336;28;20083;-55
2021/09/21 02:51:08;;;;;;;5.78;4.38;;;12.40;99.90;;;;;;5091438;28;20085;-54
2021/09/21 02:53:33;;;;;;;4.93;4.18;;;12.40;99.90;;;;;;5090074;28;20044;-55
2021/09/21 02:55:59;;;;;;;5.75;4.28;;;12.40;99.90;;;;;;5091025;28;20036;-54
2021/09/21 02:58:25;;;;;;;5.43;4.68;;;12.50;99.90;;;;;;5091342;28;20499;-55
2021/09/21 03:00:54;;;;;;;6.28;4.80;;;12.50;99.90;;;;;;5091429;28;20040;-55
2021/09/21 03:03:22;;;;;;;5.80;4.45;;;12.50;99.90;;;;;;5092039;28;20039;-55
2021/09/21 03:05:56;;;;;;;6.45;4.90;;;12.50;99.90;;;;;;5095002;28;20040;-55
2021/09/21 03:08:24;;;;;;;6.90;5.10;;;12.50;99.90;;;;;;5094830;28;20047;-54
2021/09/21 03:18:34;;;;;;;9.07;4.82;;;12.50;99.90;;;;;;5094531;28;20036;-55
2021/09/21 03:21:00;;;;;;;5.80;4.63;;;12.40;99.90;;;;;;5094349;28;20039;-55
2021/09/21 03:23:27;;;;;;;6.07;4.93;;;12.30;99.90;;;;;;5094846;28;20040;-54
2021/09/21 03:25:52;;;;;;;7.80;6.05;;;12.30;99.90;;;;;;5094645;28;20055;-55
2021/09/21 03:28:18;;;;;;;6.88;5.88;;;12.30;99.90;;;;;;5094396;28;20044;-54
2021/09/21 03:30:44;;;;;;;9.23;6.18;;;12.30;99.90;;;;;;5094259;28;20490;-55
2021/09/21 03:33:10;;;;;;;6.32;5.55;;;12.40;99.90;;;;;;5094314;28;20452;-54
2021/09/21 03:35:36;;;;;;;7.97;5.40;;;12.40;99.90;;;;;;5094144;28;20093;-55
2021/09/21 03:38:02;;;;;;;8.93;5.32;;;12.40;99.90;;;;;;5094434;28;20517;-54
2021/09/21 03:40:28;;;;;;;8.20;5.85;;;12.40;99.90;;;;;;5094256;28;20043;-54
2021/09/21 03:42:54;;;;;;;6.40;5.05;;;12.50;99.90;;;;;;5094222;28;20047;-54
2021/09/21 03:45:21;;;;;;;6.93;5.45;;;12.40;99.90;;;;;;5094113;28;20044;-54
2021/09/21 03:47:46;;;;;;;5.85;5.25;;;12.40;99.90;;;;;;5093902;28;20502;-54
2021/09/21 03:50:12;;;;;;;7.32;5.15;;;12.40;99.90;;;;;;5092984;28;20127;-54
2021/09/21 03:52:38;;;;;;;5.85;5.25;;;12.40;99.90;;;;;;5094093;28;20044;-55
2021/09/21 03:55:04;;;;;;;7.10;5.45;;;12.40;99.90;;;;;;5094034;28;20040;-54
2021/09/21 03:57:30;;;;;;;9.20;6.13;;;12.40;99.90;;;;;;5092890;28;20048;-55
2021/09/21 03:59:56;;;;;;;8.23;5.90;;;12.30;99.90;;;;;;5094201;28;20127;-55
2021/09/21 04:02:22;;;;;;;11.27;7.00;;;12.30;99.90;;;;;;5093629;28;20075;-55
2021/09/21 04:04:47;;;;;;;6.18;5.53;;;12.30;99.90;;;;;;5093621;28;20063;-55
2021/09/21 04:07:13;;;;;;;8.43;5.50;;;12.30;99.90;;;;;;5093886;28;20086;-55
2021/09/21 04:09:39;;;;;;;6.88;5.75;;;12.20;99.90;;;;;;5093648;28;20484;-54
2021/09/21 04:12:06;;;;;;;8.57;5.70;;;12.20;99.90;;;;;;5093628;28;20036;-55
2021/09/21 04:14:32;;;;;;;8.40;5.18;;;12.20;99.90;;;;;;5093059;28;20051;-55
2021/09/21 04:16:58;;;;;;;8.13;6.13;;;12.10;99.90;;;;;;5093230;28;20054;-54
2021/09/21 04:19:24;;;;;;;8.98;6.40;;;12.10;99.90;;;;;;5093424;28;20114;-54
2021/09/21 04:21:50;;;;;;;8.30;6.05;;;12.10;99.90;;;;;;5093476;28;20047;-55
2021/09/21 04:24:16;;;;;;;6.18;5.57;;;12.10;99.90;;;;;;5093492;28;20032;-55
2021/09/21 04:26:41;;;;;;;6.65;5.30;;;12.00;99.90;;;;;;5093251;28;20066;-55
2021/09/21 04:29:07;;;;;;;6.60;5.38;;;12.00;99.90;;;;;;5093084;28;20032;-54
2021/09/21 04:31:34;;;;;;;8.57;5.60;;;12.00;99.90;;;;;;5093229;28;20048;-54
2021/09/21 04:34:00;;;;;;;8.38;5.80;;;11.90;99.90;;;;;;5091892;28;20530;-54
2021/09/21 04:36:25;;;;;;;6.78;5.55;;;11.80;99.90;;;;;;5092937;28;20048;-55
2021/09/21 04:38:52;;;;;;;8.43;5.22;;;11.80;99.90;;;;;;5093130;28;20169;-54
2021/09/21 04:41:18;;;;;;;8.57;5.47;;;11.80;99.90;;;;;;5093004;28;20047;-54
2021/09/21 04:43:43;;;;;;;7.72;5.68;;;11.70;99.90;;;;;;5093029;28;20036;-54
2021/09/21 04:46:10;;;;;;;7.45;5.63;;;11.70;99.90;;;;;;5093165;28;20596;-54
2021/09/21 04:48:36;;;;;;;9.50;5.75;;;11.70;99.90;;;;;;5093140;28;20052;-54
2021/09/21 04:51:03;;;;;;;7.88;5.75;;;11.70;99.90;;;;;;5093205;28;20062;-54
2021/09/21 04:53:28;;;;;;;8.32;5.80;;;11.60;99.90;;;;;;5092808;28;20067;-54
2021/09/21 04:55:54;;;;;;;7.93;5.85;;;11.60;99.90;;;;;;5092564;28;20101;-54
2021/09/21 04:58:20;;;;;;;10.07;5.35;;;11.50;99.90;;;;;;5092623;28;20073;-54
2021/09/21 05:00:46;;;;;;;6.72;6.03;;;11.40;99.90;;;;;;5092492;28;20036;-54
2021/09/21 05:03:11;;;;;;;7.97;6.00;;;11.40;99.90;;;;;;5092547;28;20039;-55
2021/09/21 05:05:37;;;;;;;7.88;6.00;;;11.30;99.90;;;;;;5092751;28;20561;-53
2021/09/21 05:08:03;;;;;;;7.43;6.05;;;11.20;99.90;;;;;;5092620;28;20529;-54
2021/09/21 05:10:31;;;;;;;9.38;5.50;;;11.20;99.90;;;;;;5092476;28;20059;-54
2021/09/21 05:12:57;;;;;;;7.90;6.38;;;11.20;99.90;;;;;;5092499;28;20044;-54
2021/09/21 05:15:23;;;;;;;9.05;6.07;;;11.20;99.90;;;;;;5092342;28;20397;-54
2021/09/21 05:17:49;;;;;;;8.13;6.00;;;11.20;99.90;;;;;;5092372;28;20124;-54
2021/09/21 05:20:15;;;;;;;8.73;5.75;;;11.20;99.90;;;;;;5092316;28;20044;-54
2021/09/21 05:22:40;;;;;;;7.60;5.95;;;11.10;99.90;;;;;;5092355;28;20093;-54
2021/09/21 05:25:06;;;;;;;8.57;5.93;;;11.20;99.90;;;;;;5090290;28;20075;-54
2021/09/21 05:27:32;;;;;;;8.48;6.05;;;11.10;99.90;;;;;;5092034;28;20503;-55
2021/09/21 05:29:58;;;;;;;8.02;6.15;;;11.10;99.90;;;;;;5092003;28;20062;-54
2021/09/21 05:32:24;;;;;;;8.68;6.50;;;11.00;99.90;;;;;;5092130;28;20055;-55
2021/09/21 05:34:49;;;;;;;8.45;6.38;;;11.00;99.90;;;;;;5092281;28;20393;-54
2021/09/21 05:37:16;;;;;;;8.43;6.53;;;11.10;99.90;;;;;;5092383;28;20357;-53
2021/09/21 05:39:41;;;;;;;11.07;6.93;;;11.00;99.90;;;;;;5092534;28;20073;-55
2021/09/21 05:42:07;;;;;;;8.57;6.75;;;11.10;99.90;;;;;;5091897;28;20040;-54
2021/09/21 05:44:33;;;;;;;8.77;6.80;;;11.10;99.90;;;;;;5091909;28;20044;-54
2021/09/21 05:46:58;;;;;;;9.57;6.43;;;11.10;99.90;;;;;;5091918;28;20040;-54
2021/09/21 05:49:24;;;;;;;7.80;6.00;;;11.10;99.90;;;;;;5091972;28;20074;-54
2021/09/21 05:51:50;;;;;;;8.45;6.53;;;11.20;99.90;;;;;;5092015;28;20111;-54
2021/09/21 05:54:16;;;;;;;8.65;6.45;;;11.20;99.90;;;;;;5091857;28;20467;-54
2021/09/21 05:56:41;;;;;;;9.55;6.88;;;11.20;99.90;;;;;;5091886;28;20046;-54
2021/09/21 05:59:07;;;;;;;7.68;6.50;;;11.20;99.90;;;;;;5091783;28;20127;-54
2021/09/21 06:01:35;;;;;;;7.43;5.90;;;11.20;99.90;;;;;;5091684;28;20470;-54
2021/09/21 06:04:01;;;;;;;7.15;6.40;;;11.20;99.90;;;;;;5091907;28;20032;-54
2021/09/21 06:06:27;;;;;;;8.95;6.65;;;11.20;99.90;;;;;;5090690;28;20517;-54
2021/09/21 06:08:53;;;;;;;10.38;6.28;;;11.20;99.90;;;;;;5091536;28;20036;-55
2021/09/21 06:11:27;;;;;;;6.82;5.85;;;11.20;99.90;;;;;;5091691;28;20115;-54
2021/09/21 06:13:55;;;;;;;8.85;6.18;;;11.30;99.90;;;;;;5090609;28;20051;-54
2021/09/21 06:16:21;;;;;;;9.20;6.37;;;11.30;99.90;;;;;;5091796;28;20062;-54
2021/09/21 06:18:47;;;;;;;9.50;7.45;;;11.40;99.90;;;;;;5091767;28;20040;-55
2021/09/21 06:21:12;;;;;;;12.45;7.07;;;11.30;99.90;;;;;;5091607;28;20505;-54
2021/09/21 06:23:38;;;;;;;9.00;6.82;;;11.40;99.90;;;;;;5091634;28;20468;-54
2021/09/21 06:26:04;;;;;;;8.00;6.50;;;11.40;99.90;;;;;;5091621;28;20036;-54
2021/09/21 06:28:30;;;;;;;9.32;6.55;;;11.30;99.90;;;;;;5091396;28;20523;-54
2021/09/21 06:30:55;;;;;;;10.13;7.00;;;11.40;99.90;;;;;;5091360;28;20088;-54
2021/09/21 06:33:21;;;;;;;11.18;7.20;;;11.40;99.90;;;;;;5091492;28;20524;-54
2021/09/21 06:35:47;;;;;;;11.63;7.13;;;11.40;99.90;;;;;;5091410;28;20043;-54
2021/09/21 06:38:13;;;;;;;8.45;6.85;;;11.40;99.90;;;;;;5094867;28;20113;-54
2021/09/21 06:40:39;;;;;;;7.88;6.70;;;11.40;99.90;;;;;;5095271;28;20036;-55
2021/09/21 06:43:04;;;;;;;9.20;7.00;;;11.50;99.90;;;;;;5095224;28;20044;-55
2021/09/21 06:45:30;;;;;;;12.27;7.47;;;11.50;99.90;;;;;;5095814;28;20050;-54
2021/09/21 06:47:56;;;;;;;8.93;6.93;;;11.60;99.90;;;;;;5095583;28;20048;-54
2021/09/21 06:50:21;;;;;;;9.25;6.57;;;11.60;99.90;;;;;;5094411;28;20117;-53
2021/09/21 06:52:47;;;;;;;11.98;6.65;;;11.70;99.90;;;;;;5095291;28;20044;-54
2021/09/21 06:55:13;;;;;;;7.35;6.18;;;11.70;99.90;;;;;;5095034;28;20036;-54
2021/09/21 06:57:39;;;;;;;11.18;7.05;;;11.90;99.90;;;;;;5094771;28;20036;-54
2021/09/21 07:00:08;;;;;;;7.97;6.47;;;12.00;99.90;;;;;;5095113;28;20040;-54
2021/09/21 07:02:33;;;;;;;8.43;7.30;;;12.10;99.90;;;;;;5094952;28;20040;-54
2021/09/21 07:04:59;;;;;;;9.75;6.38;;;12.20;99.90;;;;;;5095229;28;20077;-54
2021/09/21 07:07:25;;;;;;;8.15;6.45;;;12.30;99.90;;;;;;5094808;28;20043;-54
2021/09/21 07:09:50;;;;;;;11.32;7.25;;;12.40;99.90;;;;;;5094825;28;20043;-54
2021/09/21 07:12:16;;;;;;;7.78;6.07;;;12.60;99.90;;;;;;5095135;28;20127;-55
2021/09/21 07:14:42;;;;;;;9.98;6.50;;;12.80;99.90;;;;;;5094798;28;20028;-55
2021/09/21 07:17:07;;;;;;;9.45;6.07;;;12.90;99.90;;;;;;5094659;28;20470;-54
2021/09/21 07:19:33;;;;;;;9.13;6.43;;;13.00;99.90;;;;;;5094707;28;20032;-54
2021/09/21 07:21:58;;;;;;;10.70;6.30;;;13.20;99.90;;;;;;5093477;28;20059;-54
2021/09/21 07:24:24;;;;;;;9.05;5.97;;;13.30;99.90;;;;;;5094481;28;20032;-54
2021/09/21 07:26:53;;;;;;;8.98;5.80;;;13.40;99.90;;;;;;5094312;28;20119;-54
2021/09/21 07:29:19;;;;;;;7.45;5.50;;;13.50;99.90;;;;;;5094244;28;20442;-55
2021/09/21 07:31:45;;;;;;;7.38;5.25;;;13.60;99.90;;;;;;5093014;28;20059;-54
2021/09/21 07:34:11;;;;;;;8.35;5.68;;;13.70;99.90;;;;;;5094321;28;20048;-55
2021/09/21 07:36:37;;;;;;;8.32;5.70;;;13.80;99.90;;;;;;5094324;28;20055;-55
2021/09/21 07:39:04;;;;;;;10.07;6.00;;;13.80;99.90;;;;;;5094319;28;20044;-55
2021/09/21 07:41:29;;;;;;;8.35;5.05;;;13.80;99.90;;;;;;5094319;28;20056;-55
2021/09/21 07:43:55;;;;;;;7.50;5.45;;;13.80;99.90;;;;;;5093962;28;20142;-55
2021/09/21 07:46:20;;;;;;;10.75;5.45;;;13.80;99.90;;;;;;5093906;28;20044;-55
2021/09/21 07:48:46;;;;;;;9.73;6.18;;;13.90;99.90;;;;;;5093466;28;20054;-55
2021/09/21 07:51:12;;;;;;;7.30;5.78;;;13.90;99.90;;;;;;5093982;28;20047;-55
2021/09/21 07:53:38;;;;;;;7.75;5.75;;;14.00;99.90;;;;;;5093831;28;20043;-55
2021/09/21 07:56:04;;;;;;;8.48;5.65;;;14.10;99.90;;;;;;5093686;28;20062;-55
2021/09/21 07:58:30;;;;;;;6.28;5.53;;;14.20;99.90;;;;;;5093875;28;20447;-55
2021/09/21 08:00:55;;;;;;;6.75;5.65;;;14.30;99.90;;;;;;5093874;28;20072;-55
2021/09/21 08:03:24;;;;;;;8.57;6.00;;;14.40;99.90;;;;;;5093773;28;20058;-55
2021/09/21 08:05:49;;;;;;;8.45;5.82;;;14.50;99.90;;;;;;5093560;28;20036;-55
2021/09/21 08:08:16;;;;;;;8.82;5.55;;;14.60;99.90;;;;;;5092456;28;20508;-55
2021/09/21 08:10:43;;;;;;;6.05;4.93;;;14.60;99.90;;;;;;5093407;28;20043;-55
2021/09/21 08:13:09;;;;;;;7.35;5.32;;;14.70;99.90;;;;;;5093710;28;20071;-55
2021/09/21 08:15:35;;;;;;;7.43;5.78;;;14.80;99.90;;;;;;5092043;28;20075;-55
2021/09/21 08:18:01;;;;;;;6.15;5.18;;;14.80;99.90;;;;;;5093444;28;20436;-55
2021/09/21 08:20:28;;;;;;;8.80;5.30;;;14.90;99.90;;;;;;5093334;28;20032;-55
2021/09/21 08:22:55;;;;;;;6.43;5.30;;;15.00;99.90;;;;;;5093690;28;20085;-55
2021/09/21 08:25:21;;;;;;;8.63;4.80;;;15.10;99.90;;;;;;5093203;28;20100;-55
2021/09/21 08:27:46;;;;;;;9.02;5.18;;;15.00;99.90;;;;;;5093445;28;20036;-55
2021/09/21 08:30:13;;;;;;;5.38;4.82;;;15.20;99.90;;;;;;5093030;28;20048;-55
2021/09/21 08:32:39;;;;;;;5.75;4.63;;;15.30;99.90;;;;;;5093229;28;20036;-55
2021/09/21 08:35:06;;;;;;;7.90;4.43;;;15.30;99.90;;;;;;5089061;28;20058;-55
2021/09/21 08:37:32;;;;;;;4.85;4.22;;;15.40;99.90;;;;;;5094146;28;20032;-55
2021/09/21 08:39:58;;;;;;;7.15;5.20;;;15.50;99.90;;;;;;5102841;28;20036;-55
2021/09/21 08:42:23;;;;;;;6.55;4.45;;;15.60;99.90;;;;;;5113873;28;20461;-55
2021/09/21 08:44:49;;;;;;;6.22;4.13;;;15.60;99.90;;;;;;5113319;28;20126;-55
2021/09/21 08:47:16;;;;;;;5.03;4.05;;;15.60;99.90;;;;;;5113400;28;20115;-55
2021/09/21 08:49:41;;;;;;;5.00;4.50;;;15.80;99.90;;;;;;5113202;28;20046;-55
2021/09/21 08:52:07;;;;;;;9.15;4.55;;;15.90;99.90;;;;;;5112617;28;20044;-55
2021/09/21 08:54:33;;;;;;;6.28;4.47;;;15.90;99.90;;;;;;5113177;28;20035;-55
2021/09/21 08:56:59;;;;;;;6.75;4.60;;;16.00;99.90;;;;;;5113085;28;20374;-55
2021/09/21 08:59:36;;;;;;;7.45;4.10;;;16.00;99.90;;;;;;5113013;28;20156;-55
2021/09/21 09:02:08;;;;;;;6.03;4.40;;;16.10;99.90;;;;;;5112919;28;20044;-55
2021/09/21 09:04:34;;;;;;;6.55;4.05;;;16.20;99.90;;;;;;5112982;28;20036;-55
2021/09/21 09:07:00;;;;;;;4.75;3.88;;;16.10;99.90;;;;;;5112584;28;20079;-55
2021/09/21 09:09:30;;;;;;;4.65;3.65;;;16.20;99.90;;;;;;5112773;28;20443;-55
2021/09/21 09:11:58;;;;;;;5.30;4.25;;;16.30;99.90;;;;;;5112802;28;20050;-55
2021/09/21 09:14:30;;;;;;;6.72;3.88;;;16.30;99.90;;;;;;5112772;27;20043;-55
2021/09/21 09:16:58;;;;;;;6.72;3.92;;;16.30;99.90;;;;;;5112383;28;20043;-55
2021/09/21 09:19:35;;;;;;;4.10;3.33;;;16.30;99.90;;;;;;5112479;28;20040;-55
2021/09/21 09:22:12;;;;;;;6.70;4.10;;;16.40;99.90;;;;;;5112651;28;20043;-55
2021/09/21 09:25:00;;;;;;;4.88;4.03;;;16.50;99.90;;;;;;5112270;28;20035;-55
2021/09/21 09:27:46;;;;;;;6.15;3.22;;;16.50;99.90;;;;;;5112718;28;20092;-55
2021/09/21 09:30:22;;;;;;;5.70;4.07;;;16.50;99.90;;;;;;5112185;28;20058;-55
2021/09/21 09:32:57;;;;;;;5.60;3.72;;;16.60;99.90;;;;;;5112706;28;20118;-56
2021/09/21 09:35:31;;;;;;;8.30;4.13;;;16.70;99.90;;;;;;5099396;28;20124;-55
2021/09/21 09:38:00;;;;;;;9.50;4.15;;;16.70;99.90;;;;;;5091604;28;20044;-55
2021/09/21 09:40:27;;;;;;;7.70;5.35;;;16.80;99.90;;;;;;5092048;28;20032;-55
2021/09/21 09:42:53;;;;;;;5.88;3.97;;;16.80;99.90;;;;;;5091737;28;20040;-55
2021/09/21 09:45:31;;;;;;;7.88;4.75;;;16.80;99.90;;;;;;5091871;28;20063;-55
2021/09/21 09:47:57;;;;;;;7.72;4.25;;;16.80;99.90;;;;;;5091705;28;20051;-55
2021/09/21 09:50:32;;;;;;;5.93;4.55;;;16.80;99.90;;;;;;5091861;28;20040;-55
2021/09/21 09:53:11;;;;;;;5.60;4.40;;;16.80;99.90;;;;;;5092087;28;20047;-55
2021/09/21 09:55:37;;;;;;;4.82;4.03;;;16.90;99.90;;;;;;5091615;28;20048;-55
2021/09/21 09:58:04;;;;;;;5.30;4.13;;;16.90;99.90;;;;;;5091612;28;20398;-55
2021/09/21 10:00:30;;;;;;;6.50;4.18;;;16.90;99.90;;;;;;5091617;28;20040;-55
2021/09/21 10:02:57;;;;;;;5.57;4.22;;;16.90;99.90;;;;;;5090746;28;20102;-55
2021/09/21 10:05:23;;;;;;;6.30;4.70;;;17.00;99.90;;;;;;5092169;28;20111;-55
2021/09/21 10:07:48;;;;;;;7.20;4.70;;;17.00;99.90;;;;;;5092182;28;20507;-55
2021/09/21 10:10:15;;;;;;;9.05;4.20;;;17.00;99.90;;;;;;5091720;28;20604;-55
2021/09/21 10:12:42;;;;;;;6.57;4.40;;;17.10;99.90;;;;;;5094539;28;20036;-55
2021/09/21 10:15:09;;;;;;;9.55;4.00;;;17.20;99.90;;;;;;5095581;28;20044;-55
2021/09/21 10:17:35;;;;;;;5.30;4.20;;;17.20;99.90;;;;;;5095616;28;20039;-55
2021/09/21 10:20:04;;;;;;;6.43;4.80;;;17.20;99.90;;;;;;5096047;28;20089;-55
2021/09/21 10:22:34;;;;;;;7.55;4.20;;;17.30;99.90;;;;;;5096061;28;20101;-55
2021/09/21 10:25:08;;;;;;;5.90;4.07;;;17.40;99.90;;;;;;5095642;28;20047;-55
2021/09/21 10:27:38;;;;;;;7.65;4.68;;;17.40;99.90;;;;;;5095592;28;20040;-55
2021/09/21 10:30:07;;;;;;;5.40;4.00;;;17.40;99.90;;;;;;5095310;28;20055;-55
2021/09/21 10:32:43;;;;;;;;;;;17.40;99.90;;;;;;5096230;28;20097;-55
2021/09/21 10:35:12;;;;;;;4.82;4.25;;;17.50;99.90;;;;;;5095531;28;19966;-55
2021/09/21 10:37:38;;;;;;;7.85;3.95;;;17.60;99.90;;;;;;5095512;28;20036;-55
2021/09/21 10:40:06;;;;;;;9.77;4.53;;;17.60;99.90;;;;;;5095715;28;20488;-55
2021/09/21 10:42:32;;;;;;;9.15;4.43;;;17.70;99.90;;;;;;5095588;28;20392;-55
2021/09/21 10:45:01;;;;;;;6.50;4.00;;;17.70;99.90;;;;;;5095366;28;20036;-55
2021/09/21 10:47:37;;;;;;;5.72;4.03;;;17.90;99.90;;;;;;5095381;28;20036;-55
2021/09/21 10:50:14;;;;;;;7.85;4.05;;;18.00;99.90;;;;;;5095295;28;20431;-55
2021/09/21 10:52:40;;;;;;;4.82;4.00;;;18.10;99.90;;;;;;5093895;28;20362;-56
2021/09/21 10:55:14;;;;;;;4.78;3.85;;;18.10;99.90;;;;;;5094885;28;20044;-56
2021/09/21 10:57:43;;;;;;;9.65;4.15;;;18.10;99.90;;;;;;5094812;28;20036;-55
2021/09/21 11:00:12;;;;;;;7.07;4.43;;;18.20;99.90;;;;;;5095008;28;20046;-55
2021/09/21 11:02:40;;;;;;;4.45;3.92;;;18.20;99.90;;;;;;5093976;28;20089;-55
2021/09/21 11:05:09;;;;;;;8.15;4.43;;;18.10;99.90;;;;;;5094995;28;20074;-55
2021/09/21 11:07:37;;;;;;;6.43;4.10;;;18.10;99.90;;;;;;5094794;28;20036;-54
2021/09/21 11:10:04;;;;;;;7.53;4.75;;;18.10;99.90;;;;;;5095078;28;20040;-55
2021/09/21 11:12:30;;;;;;;5.05;4.10;;;18.00;99.90;;;;;;5095010;28;20036;-55
2021/09/21 11:14:58;;;;;;;5.70;4.05;;;18.00;99.90;;;;;;5094483;28;20466;-56
2021/09/21 11:17:25;;;;;;;4.95;4.30;;;18.00;99.90;;;;;;5094708;28;20432;-55
2021/09/21 11:19:54;;;;;;;6.00;4.07;;;17.90;99.90;;;;;;5094617;28;20371;-55
2021/09/21 11:22:27;;;;;;;7.18;3.90;;;17.80;99.90;;;;;;5094384;28;20434;-55
2021/09/21 11:25:06;;;;;;;5.80;3.95;;;17.80;99.90;;;;;;5093594;28;20040;-55
2021/09/21 11:27:40;;;;;;;7.43;3.83;;;17.70;99.90;;;;;;5094488;28;20490;-55
2021/09/21 11:30:13;;;;;;;6.95;4.50;;;17.70;99.90;;;;;;5094130;28;20136;-55
2021/09/21 11:32:43;;;;;;;5.97;4.32;;;17.60;99.90;;;;;;5094718;28;20040;-55
2021/09/21 11:35:15;;;;;;;7.68;4.57;;;17.50;99.90;;;;;;5094295;28;20044;-54
2021/09/21 11:37:46;;;;;;;7.13;4.93;;;17.40;99.90;;;;;;5094352;28;20036;-55
2021/09/21 11:40:34;;;;;;;8.93;4.53;;;17.30;99.90;;;;;;5093022;28;20111;-55
2021/09/21 11:43:01;;;;;;;8.10;4.05;;;17.40;99.90;;;;;;5094294;28;20067;-55
2021/09/21 11:45:27;;;;;;;6.85;4.53;;;17.30;99.90;;;;;;5093127;28;20510;-55
2021/09/21 11:47:54;;;;;;;6.00;4.20;;;17.20;99.90;;;;;;5094122;28;20120;-55
2021/09/21 11:50:25;;;;;;;4.60;4.03;;;17.20;99.90;;;;;;5093959;28;20032;-55
2021/09/21 11:52:53;;;;;;;8.48;4.47;;;17.10;99.90;;;;;;5093970;28;20474;-55
2021/09/21 11:55:21;;;;;;;7.90;4.68;;;17.10;99.90;;;;;;5093855;28;20042;-55
2021/09/21 11:57:48;;;;;;;7.63;4.65;;;17.00;99.90;;;;;;5093925;28;20069;-55
2021/09/21 12:00:20;;;;;;;9.52;5.10;;;17.00;99.90;;;;;;5093961;28;20074;-55
2021/09/21 12:02:45;;;;;;;6.50;4.50;;;16.90;99.90;;;;;;5093907;28;20036;-55
2021/09/21 12:05:12;;;;;;;4.97;4.05;;;16.90;99.90;;;;;;5075910;28;20075;-55
2021/09/21 12:07:39;;;;;;;8.38;4.60;;;16.90;99.90;;;;;;5093670;28;20040;-55
2021/09/21 12:10:06;;;;;;;9.75;4.65;;;16.90;99.90;;;;;;5093576;28;20577;-55
2021/09/21 12:12:31;;;;;;;7.53;4.72;;;16.90;99.90;;;;;;5093929;28;20044;-55
2021/09/21 12:14:58;;;;;;;8.70;4.50;;;16.90;99.90;;;;;;5093610;28;20109;-55
2021/09/21 12:17:24;;;;;;;6.75;4.45;;;16.90;99.90;;;;;;5092218;28;20541;-55
2021/09/21 12:20:00;;;;;;;6.70;4.05;;;16.90;99.90;;;;;;5091939;28;20048;-55
2021/09/21 12:22:26;;;;;;;8.55;4.95;;;16.90;99.90;;;;;;5093620;28;20028;-55
2021/09/21 12:24:53;;;;;;;5.85;4.30;;;17.00;99.90;;;;;;5093739;28;20044;-55
2021/09/21 12:27:24;;;;;;;7.80;5.00;;;17.00;99.90;;;;;;5093439;28;20059;-55
2021/09/21 12:29:50;;;;;;;8.88;5.07;;;17.00;99.90;;;;;;5093288;28;20455;-55
2021/09/21 12:32:16;;;;;;;9.38;4.82;;;17.10;99.90;;;;;;5093218;28;20039;-55
2021/09/21 12:34:43;;;;;;;8.73;5.13;;;17.10;99.90;;;;;;5092769;28;20035;-55
2021/09/21 12:37:08;;;;;;;6.57;4.68;;;17.20;99.90;;;;;;5093027;28;20048;-55
2021/09/21 12:39:34;;;;;;;6.95;5.05;;;17.20;99.90;;;;;;5093222;28;20043;-55
2021/09/21 12:42:02;;;;;;;7.75;5.28;;;17.30;99.90;;;;;;5093231;28;20043;-55
2021/09/21 12:44:29;;;;;;;7.32;5.15;;;17.30;99.90;;;;;;5092964;28;20375;-55
2021/09/21 12:46:58;;;;;;;8.55;5.20;;;17.40;99.90;;;;;;5092064;28;20058;-55
2021/09/21 12:49:29;;;;;;;16.17;6.90;;;17.40;99.90;;;;;;5092907;28;20119;-55
2021/09/21 12:51:58;;;;;;;9.48;6.28;;;17.40;99.90;;;;;;5092708;28;20040;-55
2021/09/21 12:54:26;;;;;;;7.95;5.30;;;17.50;99.90;;;;;;5091653;28;20043;-55
2021/09/21 12:56:56;;;;;;;10.63;5.05;;;17.50;99.90;;;;;;5092765;28;20047;-55
2021/09/21 12:59:25;;;;;;;8.75;5.63;;;17.60;99.90;;;;;;5092804;28;20478;-55
2021/09/21 13:01:53;;;;;;;7.13;5.90;;;17.60;99.90;;;;;;5092500;28;20046;-55
2021/09/21 13:04:19;;;;;;;9.57;5.15;;;17.60;99.90;;;;;;5092474;28;20028;-55